Susan L Stall — WDF4893 — position and weather

sailwx.info

Track history (hours):
 
Tides and Currents Weather Stations Pressure Air Temp Water Temp Dewpoint Dewpoint Depression Visibility Wind Speed Wind Dir Waves Ship Positions

Susan L Stall

Owner: Canal Barge Company, Inc., Belle Chasse, LA. More information available from US FCC via Universal Licensing System and Coast Guard Vessel Documentation Center.

Last reported at 2017-Oct-10 13:32 UTC. Time now 2017-Oct-17 05:44 UTC.
Position N 32°37' W 091°09'.

Length 46 m.

Type: Towing. MMSI: 367456960.

Date/timePositionNaut miles runAvg speedWind from/ knotsBaromVisibWave heightAir tempDewpointWater temp
2017-Oct-10 13:32N 32°37' W 091°09'0 2.7
2017-Oct-10 13:24N 32°36' W 091°09'0 0.1
2017-Oct-10 13:00N 32°36' W 091°09'0 0.0
2017-Oct-10 12:30N 32°36' W 091°09'0 0.1
2017-Oct-10 12:00N 32°36' W 091°09'0 0.0
2017-Oct-10 11:30N 32°36' W 091°09'0 0.0
2017-Oct-10 11:00N 32°36' W 091°09'0 0.0
2017-Oct-10 10:30N 32°36' W 091°09'0 0.0
2017-Oct-10 10:00N 32°36' W 091°09'1 1.6
2017-Oct-10 09:30N 32°36' W 091°09'2 4.6
2017-Oct-10 09:00N 32°34' W 091°07'2 3.9
2017-Oct-10 08:28N 32°32' W 091°06'2 4.6
2017-Oct-10 08:00N 32°30' W 091°07'0 0.7
2017-Oct-10 07:30N 32°30' W 091°07'2 4.9
2017-Oct-10 07:00N 32°28' W 091°06'2 4.8
2017-Oct-10 06:30N 32°26' W 091°04'0 0.1
2017-Oct-10 06:00N 32°26' W 091°04'0 0.0
2017-Oct-10 05:30N 32°26' W 091°04'2 3.5
2017-Oct-10 05:00N 32°26' W 091°02'2 4.2
2017-Oct-10 04:30N 32°25' W 090°60'2 4.5
2017-Oct-10 04:00N 32°22' W 091°00'2 4.2
2017-Oct-10 03:30N 32°21' W 090°58'1 1.7
2017-Oct-10 03:00N 32°21' W 090°57'0 0.1
2017-Oct-10 02:30N 32°21' W 090°57'0 0.0
2017-Oct-10 02:00N 32°21' W 090°57'0 0.0
2017-Oct-10 01:30N 32°21' W 090°57'0 0.0
2017-Oct-10 01:00N 32°21' W 090°57'0 0.0
2017-Oct-10 00:30N 32°21' W 090°57'0 0.0
2017-Oct-10 00:00N 32°21' W 090°57'0 0.0
2017-Oct-09 23:30N 32°21' W 090°57'0 0.0
2017-Oct-09 23:00N 32°21' W 090°57'0 0.0
2017-Oct-09 22:30N 32°21' W 090°57'0 0.0
2017-Oct-09 22:00N 32°21' W 090°57'1 2.3
2017-Oct-09 21:30N 32°21' W 090°56'2 4.0
2017-Oct-09 21:00N 32°20' W 090°54'2 4.5
2017-Oct-09 20:30N 32°18' W 090°55'2 3.6
2017-Oct-09 20:00N 32°17' W 090°57'2 4.1
2017-Oct-09 19:30N 32°15' W 090°59'2 4.4
2017-Oct-09 19:00N 32°13' W 090°59'3 5.1
2017-Oct-09 18:30N 32°11' W 090°60'2 4.4
2017-Oct-09 18:00N 32°09' W 091°00'2 4.2
2017-Oct-09 17:27N 32°07' W 091°02'3 5.2
2017-Oct-09 16:54N 32°08' W 091°06'1 3.8
2017-Oct-09 16:30N 32°07' W 091°06'5 4.5
2017-Oct-09 15:28N 32°03' W 091°04'  
2017-Oct-06 20:06N 32°00' W 091°05'6 7.4
2017-Oct-06 19:14N 32°06' W 091°06'2 6.7
2017-Oct-06 19:00N 32°08' W 091°06'4 8.2
2017-Oct-06 18:30N 32°07' W 091°01'4 8.1
2017-Oct-06 18:00N 32°11' W 090°60'4 8.4
2017-Oct-06 17:30N 32°15' W 090°59'3 6.6
2017-Oct-06 17:00N 32°17' W 090°56'1 2.1
2017-Oct-06 16:30N 32°18' W 090°55'0 0.0
2017-Oct-06 16:00N 32°18' W 090°55'0 0.0
2017-Oct-06 15:30N 32°18' W 090°55'0 0.0
2017-Oct-06 15:00N 32°18' W 090°55'0 0.0
2017-Oct-06 14:30N 32°18' W 090°55'0 0.0
2017-Oct-06 14:00N 32°18' W 090°55'0 0.0
2017-Oct-06 13:30N 32°18' W 090°55'0 0.0
2017-Oct-06 13:00N 32°18' W 090°55'0 0.0
2017-Oct-06 12:30N 32°18' W 090°55'0 0.0
2017-Oct-06 12:00N 32°18' W 090°55'0 0.0
2017-Oct-06 11:30N 32°18' W 090°55'0 0.0
2017-Oct-06 11:00N 32°18' W 090°55'0 0.0
2017-Oct-06 10:30N 32°18' W 090°55'0 0.0
2017-Oct-06 10:00N 32°18' W 090°55'0 0.0
2017-Oct-06 09:30N 32°18' W 090°55'2 3.6
2017-Oct-06 09:00N 32°20' W 090°54'3 5.9
2017-Oct-06 08:30N 32°21' W 090°57'1 1.3
2017-Oct-06 08:00N 32°21' W 090°58'2 4.3
2017-Oct-06 07:30N 32°22' W 091°00'4 7.1
2017-Oct-06 07:00N 32°25' W 091°00'4 8.0
2017-Oct-06 06:30N 32°27' W 091°05'4 7.3
2017-Oct-06 06:00N 32°30' W 091°07'4 8.1
2017-Oct-06 05:30N 32°34' W 091°06'4 8.1
2017-Oct-06 05:00N 32°37' W 091°09'  
2017-Oct-02 12:28N 38°58' W 090°26'2 4.9
2017-Oct-02 12:00N 38°58' W 090°29'2 4.1
2017-Oct-02 11:27N 38°57' W 090°32'1 0.0
2017-Oct-01 18:02N 38°58' W 090°32'0 4.8
2017-Oct-01 17:59N 38°58' W 090°32'2 4.2
2017-Oct-01 17:30N 38°58' W 090°30'3 5.0
2017-Oct-01 17:00N 38°58' W 090°26'3 5.3
2017-Oct-01 16:30N 38°58' W 090°23'3 5.4
2017-Oct-01 15:56N 38°56' W 090°20'1 3.3
2017-Oct-01 15:30N 38°55' W 090°18'  
Track history (hours):
 
Tides and Currents Weather Stations Pressure Air Temp Water Temp Dewpoint Dewpoint Depression Visibility Wind Speed Wind Dir Waves Ship Positions

Susan L Stall

Owner: Canal Barge Company, Inc., Belle Chasse, LA. More information available from US FCC via Universal Licensing System and Coast Guard Vessel Documentation Center.

Last reported at 2017-Oct-10 13:32 UTC. Time now 2017-Oct-17 05:44 UTC.
Position N 32°37' W 091°09'.

Length 46 m.

Type: Towing. MMSI: 367456960.

Date/timePositionNaut miles runAvg speedWind from/ knotsBaromVisibWave heightAir tempDewpointWater temp
2017-Oct-10 13:32N 32°37' W 091°09'0 2.7
2017-Oct-10 13:24N 32°36' W 091°09'0 0.1
2017-Oct-10 13:00N 32°36' W 091°09'0 0.0
2017-Oct-10 12:30N 32°36' W 091°09'0 0.1
2017-Oct-10 12:00N 32°36' W 091°09'0 0.0
2017-Oct-10 11:30N 32°36' W 091°09'0 0.0
2017-Oct-10 11:00N 32°36' W 091°09'0 0.0
2017-Oct-10 10:30N 32°36' W 091°09'0 0.0
2017-Oct-10 10:00N 32°36' W 091°09'1 1.6
2017-Oct-10 09:30N 32°36' W 091°09'2 4.6
2017-Oct-10 09:00N 32°34' W 091°07'2 3.9
2017-Oct-10 08:28N 32°32' W 091°06'2 4.6
2017-Oct-10 08:00N 32°30' W 091°07'0 0.7
2017-Oct-10 07:30N 32°30' W 091°07'2 4.9
2017-Oct-10 07:00N 32°28' W 091°06'2 4.8
2017-Oct-10 06:30N 32°26' W 091°04'0 0.1
2017-Oct-10 06:00N 32°26' W 091°04'0 0.0
2017-Oct-10 05:30N 32°26' W 091°04'2 3.5
2017-Oct-10 05:00N 32°26' W 091°02'2 4.2
2017-Oct-10 04:30N 32°25' W 090°60'2 4.5
2017-Oct-10 04:00N 32°22' W 091°00'2 4.2
2017-Oct-10 03:30N 32°21' W 090°58'1 1.7
2017-Oct-10 03:00N 32°21' W 090°57'0 0.1
2017-Oct-10 02:30N 32°21' W 090°57'0 0.0
2017-Oct-10 02:00N 32°21' W 090°57'0 0.0
2017-Oct-10 01:30N 32°21' W 090°57'0 0.0
2017-Oct-10 01:00N 32°21' W 090°57'0 0.0
2017-Oct-10 00:30N 32°21' W 090°57'0 0.0
2017-Oct-10 00:00N 32°21' W 090°57'0 0.0
2017-Oct-09 23:30N 32°21' W 090°57'0 0.0
2017-Oct-09 23:00N 32°21' W 090°57'0 0.0
2017-Oct-09 22:30N 32°21' W 090°57'0 0.0
2017-Oct-09 22:00N 32°21' W 090°57'1 2.3
2017-Oct-09 21:30N 32°21' W 090°56'2 4.0
2017-Oct-09 21:00N 32°20' W 090°54'2 4.5
2017-Oct-09 20:30N 32°18' W 090°55'2 3.6
2017-Oct-09 20:00N 32°17' W 090°57'2 4.1
2017-Oct-09 19:30N 32°15' W 090°59'2 4.4
2017-Oct-09 19:00N 32°13' W 090°59'3 5.1
2017-Oct-09 18:30N 32°11' W 090°60'2 4.4
2017-Oct-09 18:00N 32°09' W 091°00'2 4.2
2017-Oct-09 17:27N 32°07' W 091°02'3 5.2
2017-Oct-09 16:54N 32°08' W 091°06'1 3.8
2017-Oct-09 16:30N 32°07' W 091°06'5 4.5
2017-Oct-09 15:28N 32°03' W 091°04'  
2017-Oct-06 20:06N 32°00' W 091°05'6 7.4
2017-Oct-06 19:14N 32°06' W 091°06'2 6.7
2017-Oct-06 19:00N 32°08' W 091°06'4 8.2
2017-Oct-06 18:30N 32°07' W 091°01'4 8.1
2017-Oct-06 18:00N 32°11' W 090°60'4 8.4
2017-Oct-06 17:30N 32°15' W 090°59'3 6.6
2017-Oct-06 17:00N 32°17' W 090°56'1 2.1
2017-Oct-06 16:30N 32°18' W 090°55'0 0.0
2017-Oct-06 16:00N 32°18' W 090°55'0 0.0
2017-Oct-06 15:30N 32°18' W 090°55'0 0.0
2017-Oct-06 15:00N 32°18' W 090°55'0 0.0
2017-Oct-06 14:30N 32°18' W 090°55'0 0.0
2017-Oct-06 14:00N 32°18' W 090°55'0 0.0
2017-Oct-06 13:30N 32°18' W 090°55'0 0.0
2017-Oct-06 13:00N 32°18' W 090°55'0 0.0
2017-Oct-06 12:30N 32°18' W 090°55'0 0.0
2017-Oct-06 12:00N 32°18' W 090°55'0 0.0
2017-Oct-06 11:30N 32°18' W 090°55'0 0.0
2017-Oct-06 11:00N 32°18' W 090°55'0 0.0
2017-Oct-06 10:30N 32°18' W 090°55'0 0.0
2017-Oct-06 10:00N 32°18' W 090°55'0 0.0
2017-Oct-06 09:30N 32°18' W 090°55'2 3.6
2017-Oct-06 09:00N 32°20' W 090°54'3 5.9
2017-Oct-06 08:30N 32°21' W 090°57'1 1.3
2017-Oct-06 08:00N 32°21' W 090°58'2 4.3
2017-Oct-06 07:30N 32°22' W 091°00'4 7.1
2017-Oct-06 07:00N 32°25' W 091°00'4 8.0
2017-Oct-06 06:30N 32°27' W 091°05'4 7.3
2017-Oct-06 06:00N 32°30' W 091°07'4 8.1
2017-Oct-06 05:30N 32°34' W 091°06'4 8.1
2017-Oct-06 05:00N 32°37' W 091°09'  
2017-Oct-02 12:28N 38°58' W 090°26'2 4.9
2017-Oct-02 12:00N 38°58' W 090°29'2 4.1
2017-Oct-02 11:27N 38°57' W 090°32'1 0.0
2017-Oct-01 18:02N 38°58' W 090°32'0 4.8
2017-Oct-01 17:59N 38°58' W 090°32'2 4.2
2017-Oct-01 17:30N 38°58' W 090°30'3 5.0
2017-Oct-01 17:00N 38°58' W 090°26'3 5.3
2017-Oct-01 16:30N 38°58' W 090°23'3 5.4
2017-Oct-01 15:56N 38°56' W 090°20'1 3.3
2017-Oct-01 15:30N 38°55' W 090°18'  

Dump ship's entire track history